PK-CLC Lost Contact with ATC (9th of January, 2021)

SJ182 operated by Sriwijaya Air PK-CLC a Boeing 737-500

Time Lat Lon Altitude Heading Speed Vertical Rate
2021-01-09 07:40:11 GMT -5.972978 106.567619 5,800 11 115 22912
2021-01-09 07:40:10 GMT -5.974887 106.567810 10,600 358 282 -10368
2021-01-09 07:39:59 GMT -5.988107 106.563217 10,850 37 287 896
2021-01-09 07:39:50 GMT -5.996841 106.555046 10,675 46 286 1280
2021-01-09 07:39:47 GMT -5.998306 106.553513 10,650 47 285 1280
2021-01-09 07:39:41 GMT -6.004121 106.547165 10,500 47 285 1920
2021-01-09 07:39:37 GMT -6.008743 106.542435 10,325 43 284 2176
2021-01-09 07:39:29 GMT -6.016663 106.535820 10,075 35 283 2048
2021-01-09 07:39:26 GMT -6.020004 106.533539 9,975 32 282 2048
2021-01-09 07:39:18 GMT -6.028235 106.528976 9,725 23 276 2368
2021-01-09 07:39:15 GMT -6.033096 106.526932 9,575 20 274 2560
2021-01-09 07:39:08 GMT -6.041199 106.524414 9,300 13 271 2752
2021-01-09 07:39:04 GMT -6.046251 106.523346 9,150 9 268 2752
2021-01-09 07:38:56 GMT -6.058960 106.522552 8,650 356 258 2944
2021-01-09 07:38:53 GMT -6.060059 106.522644 8,600 354 258 2816
2021-01-09 07:38:48 GMT -6.064453 106.523209 8,350 348 255 2688
2021-01-09 07:38:45 GMT -6.068069 106.523949 8,325 347 254 2752
2021-01-09 07:38:42 GMT -6.072922 106.525345 8,125 340 250 3008
2021-01-09 07:38:37 GMT -6.076904 106.526932 7,950 336 247 3392
2021-01-09 07:38:34 GMT -6.079583 106.528221 7,800 332 245 3712
2021-01-09 07:38:31 GMT -6.083359 106.530464 7,550 325 242 3712
2021-01-09 07:38:26 GMT -6.088165 106.534332 7,250 317 239 4160
2021-01-09 07:38:23 GMT -6.089405 106.535469 7,125 314 238 4288
2021-01-09 07:38:20 GMT -6.092478 106.538925 6,850 306 238 3648
2021-01-09 07:38:16 GMT -6.094340 106.541527 6,475 296 234 3968
2021-01-09 07:38:13 GMT -6.096341 106.544937 6,475 296 234 3968
2021-01-09 07:38:08 GMT -6.098622 106.550194 6,125 291 231 4416
2021-01-09 07:38:05 GMT -6.099414 106.552422 5,975 288 231 4096
2021-01-09 07:38:02 GMT -6.100433 106.555695 5,775 287 230 3904
2021-01-09 07:37:55 GMT -6.102539 106.562775 5,350 288 228 3968
2021-01-09 07:37:51 GMT -6.103821 106.567009 5,075 287 227 4032
2021-01-09 07:37:45 GMT -6.105698 106.573257 4,675 287 225 4352
2021-01-09 07:37:40 GMT -6.107048 106.577896 4,350 287 225 4288
2021-01-09 07:37:36 GMT -6.108444 106.582512 4,075 287 225 3584
2021-01-09 07:37:33 GMT -6.109406 106.585632 3,900 288 223 3392
2021-01-09 07:37:29 GMT -6.110307 106.588600 3,725 288 221 3584
2021-01-09 07:37:25 GMT -6.112076 106.593948 3,400 290 219 3776
2021-01-09 07:37:21 GMT -6.113100 106.596886 3,225 291 218 3328
2021-01-09 07:37:18 GMT -6.114031 106.599251 3,100 292 215 3008
2021-01-09 07:37:12 GMT -6.116964 106.606163 2,725 296 207 3392
2021-01-09 07:37:07 GMT -6.118286 106.608910 2,550 297 205 3712
2021-01-09 07:37:02 GMT -6.120409 106.613174 2,275 297 204 3136
2021-01-09 07:36:57 GMT -6.122737 106.618149 2,075 290 196 896
2021-01-09 07:36:50 GMT -6.124273 106.624352 1,950 274 177 1280
2021-01-09 07:36:46 GMT -6.124319 106.627190 1,875 266 171 1280
2021-01-09 07:36:40 GMT -6.123459 106.631859 1,725 252 157 2048
2021-01-09 07:36:35 GMT -6.122177 106.635300 1,550 248 152 2816
2021-01-09 07:36:29 GMT -6.120575 106.639351 1,200 249 152 3584

Making use of Plane Finder data

You are free to use the raw flight data, aircraft information and images provided in this report for your own purposes provided the data is correctly attributed to Plane Finder. We ask that you please credit Plane Finder and link to planefinder.net in close proximity to the content.

Optionally one of the following logos (no smaller then 150x24px) can be used and must link to planefinder.net

Embedding the Plane Finder map

You are welcome to embed the Plane Finder playback map on your website to offer visitors a more interactive experience. We suggest using the following HTML code:

<iframe src="//planefinder.net/data/report/PK-CLC/map" width="800" height="600" seamless="seamless"></iframe>

Where our data comes from

Plane Finder has a global network of data feeds and antenna radars that receive data broadcast directly from aircraft. The primary technologies used are ADS-B and MLAT. We also show feeds from the FAA and a FLARM glider feed.

Click here to find out more about the Plane Finder network.

How we collect our data